Time;durP1;ratioP1;P1;durP2;ratioP2;P2;SDS_P1;SDS_P2;PMS_P1;PMS_P2;Temp;Humidity;BMP_temperature;BMP_pressure;BME280_temperature;BME280_humidity;BME280_pressure;Samples;Min_cycle;Max_cycle;Signal;HPM_P1;HPM_P2
2023/05/29 00:00:07;;;;;;;4.63;1.63;;;14.80;97.70;;;;;;5051111;28;20025;-51
2023/05/29 00:02:35;;;;;;;4.18;1.40;;;14.80;97.80;;;;;;5051118;28;20040;-48
2023/05/29 00:05:05;;;;;;;2.83;1.50;;;14.70;97.90;;;;;;5050931;28;20029;-51
2023/05/29 00:07:34;;;;;;;2.33;1.20;;;14.70;98.10;;;;;;5051080;28;20029;-50
2023/05/29 00:10:00;;;;;;;;;;;14.60;98.20;;;;;;5066963;28;20033;-48
2023/05/29 00:12:26;;;;;;;2.88;1.40;;;14.60;98.40;;;;;;5050801;28;19909;-51
2023/05/29 00:14:51;;;;;;;3.03;1.35;;;14.60;98.50;;;;;;5052169;28;20040;-48
2023/05/29 00:17:17;;;;;;;4.10;1.30;;;14.50;98.80;;;;;;5055272;28;20069;-47
2023/05/29 00:19:43;;;;;;;3.67;1.60;;;14.50;98.90;;;;;;5055171;28;20028;-52
2023/05/29 00:22:10;;;;;;;4.72;1.38;;;14.50;99.20;;;;;;5054656;28;20029;-52
2023/05/29 00:24:35;;;;;;;4.32;1.67;;;14.40;99.20;;;;;;5054869;28;20044;-51
2023/05/29 00:27:01;;;;;;;3.63;1.65;;;14.30;99.40;;;;;;5054851;28;20029;-47
2023/05/29 00:29:27;;;;;;;3.47;1.40;;;14.30;99.50;;;;;;5054954;28;20025;-47
2023/05/29 00:31:54;;;;;;;4.07;1.73;;;14.30;99.60;;;;;;5054616;28;20017;-51
2023/05/29 00:34:23;;;;;;;4.13;1.38;;;14.30;99.80;;;;;;5054904;28;20036;-48
2023/05/29 00:36:50;;;;;;;;;;;14.20;99.80;;;;;;5037272;28;20505;-52
2023/05/29 00:39:16;;;;;;;3.75;1.23;;;14.20;99.90;;;;;;5036833;28;20003;-49
2023/05/29 00:41:42;;;;;;;3.45;1.40;;;14.20;99.90;;;;;;5069764;28;20025;-50
2023/05/29 00:44:07;;;;;;;4.03;1.70;;;14.10;99.90;;;;;;5054571;28;20156;-48
2023/05/29 00:46:34;;;;;;;4.35;1.52;;;14.10;99.90;;;;;;5054626;28;20029;-52
2023/05/29 00:49:00;;;;;;;4.10;1.58;;;14.00;99.90;;;;;;5036484;28;20032;-47
2023/05/29 00:51:28;;;;;;;3.92;1.80;;;14.00;99.90;;;;;;5054299;28;20819;-48
2023/05/29 00:53:54;;;;;;;3.85;1.85;;;13.90;99.90;;;;;;5054339;28;20458;-47
2023/05/29 00:56:21;;;;;;;3.53;1.48;;;13.90;99.90;;;;;;5054421;28;20025;-51
2023/05/29 00:58:50;;;;;;;6.13;1.90;;;13.80;99.90;;;;;;5054616;28;20028;-48
2023/05/29 01:01:19;;;;;;;2.97;1.60;;;13.70;99.90;;;;;;5054328;28;20025;-47
2023/05/29 01:03:48;;;;;;;3.17;1.70;;;13.60;99.90;;;;;;5036234;28;20052;-47
2023/05/29 01:06:15;;;;;;;2.88;1.42;;;13.50;99.90;;;;;;5069505;28;20033;-50
2023/05/29 01:08:43;;;;;;;3.22;1.52;;;13.50;99.90;;;;;;5054321;28;20057;-49
2023/05/29 01:11:41;;;;;;;5.10;1.98;;;13.40;99.90;;;;;;5035939;28;20021;-48
2023/05/29 01:14:14;;;;;;;3.67;1.73;;;13.40;99.90;;;;;;5053755;28;20017;-51
2023/05/29 01:16:51;;;;;;;4.63;1.65;;;13.40;99.90;;;;;;5054121;28;20025;-51
2023/05/29 01:19:46;;;;;;;5.50;1.67;;;13.40;99.90;;;;;;5035996;28;20158;-48
2023/05/29 01:22:33;;;;;;;4.03;1.77;;;13.30;99.90;;;;;;5036101;28;20040;-53
2023/05/29 01:25:12;;;;;;;4.40;1.43;;;13.30;99.90;;;;;;5053727;28;20029;-50
2023/05/29 01:27:40;;;;;;;6.10;1.65;;;13.20;99.90;;;;;;5052721;28;20075;-53
2023/05/29 01:30:09;;;;;;;4.05;1.73;;;13.20;99.90;;;;;;5035810;28;20485;-52
2023/05/29 01:32:35;;;;;;;5.53;2.00;;;13.10;99.90;;;;;;5053879;28;20024;-53
2023/05/29 01:35:01;;;;;;;5.97;1.70;;;13.00;99.90;;;;;;5035676;28;20025;-52
2023/05/29 01:37:27;;;;;;;6.13;1.80;;;13.00;99.90;;;;;;5054134;28;20032;-49
2023/05/29 01:39:55;;;;;;;4.93;1.60;;;12.90;99.90;;;;;;5035820;28;20056;-52
2023/05/29 01:42:22;;;;;;;5.67;1.47;;;12.80;99.90;;;;;;5035616;28;20059;-52
2023/05/29 01:44:48;;;;;;;4.93;1.80;;;12.80;99.90;;;;;;5053605;28;20029;-49
2023/05/29 01:47:16;;;;;;;4.03;1.33;;;12.70;99.90;;;;;;5035051;28;20087;-48
2023/05/29 01:49:43;;;;;;;3.97;1.30;;;12.60;99.90;;;;;;5035690;28;20573;-50
2023/05/29 01:52:10;;;;;;;3.60;1.20;;;12.50;99.90;;;;;;5053393;28;20417;-52
2023/05/29 01:54:36;;;;;;;3.47;1.13;;;12.50;99.90;;;;;;5035456;28;20123;-51
2023/05/29 01:57:02;;;;;;;5.47;1.23;;;12.40;99.90;;;;;;5053688;28;20112;-48
2023/05/29 01:59:30;;;;;;;5.53;1.43;;;12.40;99.90;;;;;;5035594;28;20051;-50
2023/05/29 02:01:56;;;;;;;4.03;1.07;;;12.30;99.90;;;;;;5035273;28;20063;-48
2023/05/29 02:04:21;;;;;;;9.10;1.90;;;12.30;99.90;;;;;;5053153;28;20060;-48
2023/05/29 02:06:47;;;;;;;4.30;1.27;;;12.30;99.90;;;;;;5035392;28;20033;-48
2023/05/29 02:09:13;;;;;;;2.80;1.30;;;12.20;99.90;;;;;;5053371;28;20025;-49
2023/05/29 02:11:44;;;;;;;3.57;1.13;;;12.20;99.90;;;;;;5053189;28;20489;-52
2023/05/29 02:14:10;;;;;;;5.90;1.50;;;12.20;99.90;;;;;;5052998;28;20385;-49
2023/05/29 02:16:36;;;;;;;5.17;1.37;;;12.10;99.90;;;;;;5053261;28;20029;-50
2023/05/29 02:19:03;;;;;;;4.67;1.30;;;12.00;99.90;;;;;;5053061;28;20147;-49
2023/05/29 02:21:31;;;;;;;5.13;1.20;;;12.00;99.90;;;;;;5034668;28;20059;-51
2023/05/29 02:23:57;;;;;;;4.70;1.17;;;12.00;99.90;;;;;;5034801;28;20041;-51
2023/05/29 02:26:22;;;;;;;5.30;1.50;;;11.90;99.90;;;;;;5034935;28;20037;-50
2023/05/29 02:28:50;;;;;;;3.80;1.10;;;11.90;99.90;;;;;;5053102;28;20028;-49
2023/05/29 02:31:16;;;;;;;6.10;1.30;;;12.00;99.90;;;;;;5052604;28;20021;-51
2023/05/29 02:33:41;;;;;;;6.50;1.37;;;12.00;99.90;;;;;;5052836;28;20025;-51
2023/05/29 02:36:10;;;;;;;5.73;1.10;;;11.90;99.90;;;;;;5034586;28;20516;-50
2023/05/29 02:38:36;;;;;;;3.58;1.40;;;11.90;99.90;;;;;;5034168;28;20062;-53
2023/05/29 02:41:01;;;;;;;3.97;1.10;;;11.90;99.90;;;;;;5034350;28;20123;-49
2023/05/29 02:43:27;;;;;;;5.80;1.47;;;11.80;99.90;;;;;;5052466;28;20435;-48
2023/05/29 02:45:54;;;;;;;3.70;0.73;;;11.80;99.90;;;;;;5034232;28;20494;-52
2023/05/29 02:48:21;;;;;;;6.30;1.50;;;11.80;99.90;;;;;;5052486;28;20028;-49
2023/05/29 02:50:47;;;;;;;5.87;1.33;;;11.80;99.90;;;;;;5034186;28;20025;-48
2023/05/29 02:53:13;;;;;;;8.33;1.37;;;11.80;99.90;;;;;;5052236;28;20489;-52
2023/05/29 02:55:39;;;;;;;3.17;1.20;;;11.70;99.90;;;;;;5034138;28;20025;-49
2023/05/29 02:58:05;;;;;;;3.80;0.90;;;11.70;99.90;;;;;;5049639;28;20438;-47
2023/05/29 03:00:31;;;;;;;3.77;1.23;;;11.70;99.90;;;;;;5049756;28;20104;-49
2023/05/29 03:02:58;;;;;;;7.03;1.37;;;11.60;99.90;;;;;;5034126;28;20351;-52
2023/05/29 03:05:23;;;;;;;4.90;1.03;;;11.60;99.90;;;;;;5051690;28;20396;-50
2023/05/29 03:07:49;;;;;;;2.17;0.83;;;11.60;99.90;;;;;;5034025;28;20033;-51
2023/05/29 03:10:17;;;;;;;4.13;1.00;;;11.60;99.90;;;;;;5051794;28;20432;-48
2023/05/29 03:12:43;;;;;;;2.70;1.07;;;11.50;99.90;;;;;;5034030;28;20044;-49
2023/05/29 03:15:10;;;;;;;4.67;1.00;;;11.50;99.90;;;;;;5033105;28;20025;-49
2023/05/29 03:17:38;;;;;;;4.30;1.23;;;11.40;99.90;;;;;;5033831;28;20511;-52
2023/05/29 03:20:07;;;;;;;6.60;1.20;;;11.40;99.90;;;;;;5033791;28;20024;-52
2023/05/29 03:22:35;;;;;;;5.60;1.40;;;11.40;99.90;;;;;;5051617;28;20025;-49
2023/05/29 03:25:02;;;;;;;7.17;1.60;;;11.40;99.90;;;;;;5033598;28;20032;-49
2023/05/29 03:27:29;;;;;;;4.50;1.33;;;11.40;99.90;;;;;;5051624;28;20068;-49
2023/05/29 03:30:02;;;;;;;7.27;1.40;;;11.30;99.90;;;;;;5033550;28;20052;-50
2023/05/29 03:32:30;;;;;;;9.67;1.60;;;11.40;99.90;;;;;;5051558;28;20366;-48
2023/05/29 03:34:57;;;;;;;3.63;1.17;;;11.30;99.90;;;;;;5033395;28;20025;-53
2023/05/29 03:37:23;;;;;;;3.53;1.23;;;11.30;99.90;;;;;;5033388;28;20037;-48
2023/05/29 03:39:49;;;;;;;5.23;0.93;;;11.30;99.90;;;;;;5033451;28;20036;-50
2023/05/29 03:42:15;;;;;;;7.87;1.70;;;11.30;99.90;;;;;;5033294;28;20028;-50
2023/05/29 03:44:42;;;;;;;6.67;1.77;;;11.20;99.90;;;;;;5051177;28;20036;-47
2023/05/29 03:47:10;;;;;;;3.23;1.27;;;11.20;99.90;;;;;;5033357;28;20052;-50
2023/05/29 03:49:36;;;;;;;4.70;1.20;;;11.20;99.90;;;;;;5032621;28;20061;-50
2023/05/29 03:52:03;;;;;;;5.17;1.23;;;11.20;99.90;;;;;;5050510;28;20032;-49
2023/05/29 03:54:28;;;;;;;4.20;1.33;;;11.20;99.90;;;;;;5033118;28;20028;-48
2023/05/29 03:56:55;;;;;;;6.70;1.17;;;11.20;99.90;;;;;;5033284;28;20032;-50
2023/05/29 03:59:25;;;;;;;6.47;1.57;;;11.10;99.90;;;;;;5033261;28;20500;-48
2023/05/29 04:01:51;;;;;;;6.37;1.37;;;11.10;99.90;;;;;;5050945;28;20021;-49
2023/05/29 04:04:16;;;;;;;7.37;1.20;;;11.10;99.90;;;;;;5051082;28;20033;-48
2023/05/29 04:06:42;;;;;;;6.10;1.23;;;11.10;99.90;;;;;;5032903;28;20029;-52
2023/05/29 04:09:08;;;;;;;8.00;1.60;;;11.10;99.90;;;;;;5033082;28;20500;-53
2023/05/29 04:11:34;;;;;;;5.13;1.30;;;11.00;99.90;;;;;;5032860;28;20381;-53
2023/05/29 04:14:02;;;;;;;4.33;1.30;;;11.00;99.90;;;;;;5050802;28;20021;-49
2023/05/29 04:16:29;;;;;;;5.60;1.63;;;11.00;99.90;;;;;;5033221;28;20535;-49
2023/05/29 04:18:55;;;;;;;5.40;1.57;;;11.00;99.90;;;;;;5032927;28;20041;-51
2023/05/29 04:21:24;;;;;;;;;;;11.00;99.90;;;;;;5066589;28;20056;-52
2023/05/29 04:23:49;;;;;;;8.53;1.87;;;11.00;99.90;;;;;;5032847;28;19908;-51
2023/05/29 04:26:15;;;;;;;5.40;1.50;;;11.00;99.90;;;;;;5032791;28;20112;-49
2023/05/29 04:28:42;;;;;;;4.07;1.30;;;11.00;99.90;;;;;;5033060;28;20029;-53
2023/05/29 04:31:08;;;;;;;4.33;1.20;;;11.10;99.90;;;;;;5032682;28;20029;-50
2023/05/29 04:33:37;;;;;;;7.13;1.60;;;11.10;99.90;;;;;;5032909;28;20116;-51
2023/05/29 04:36:04;;;;;;;10.37;1.40;;;11.10;99.90;;;;;;5032565;28;20037;-52
2023/05/29 04:38:32;;;;;;;9.95;1.42;;;11.10;99.90;;;;;;5032941;28;20043;-52
2023/05/29 04:40:58;;;;;;;5.13;1.70;;;11.10;99.90;;;;;;5032777;28;20036;-50
2023/05/29 04:43:26;;;;;;;4.37;1.20;;;11.10;99.90;;;;;;5032884;28;20033;-50
2023/05/29 04:45:59;;;;;;;7.27;1.43;;;11.20;99.90;;;;;;5032581;28;20029;-54
2023/05/29 04:48:26;;;;;;;8.13;1.70;;;11.20;99.90;;;;;;5032843;28;20032;-49
2023/05/29 04:50:52;;;;;;;6.60;1.10;;;11.20;99.90;;;;;;5032365;28;20034;-53
2023/05/29 04:53:18;;;;;;;5.70;1.20;;;11.20;99.90;;;;;;5032696;28;20512;-51
2023/05/29 04:55:44;;;;;;;5.43;1.33;;;11.20;99.90;;;;;;5032542;28;20024;-53
2023/05/29 04:58:12;;;;;;;6.27;1.40;;;11.20;99.90;;;;;;5032704;28;20048;-49
2023/05/29 05:00:38;;;;;;;3.40;1.05;;;11.20;99.90;;;;;;5033175;28;20061;-50
2023/05/29 05:03:04;;;;;;;3.43;0.87;;;11.20;99.90;;;;;;5036147;28;20542;-51
2023/05/29 05:05:31;;;;;;;5.57;1.23;;;11.30;99.90;;;;;;5035652;28;20056;-47
2023/05/29 05:07:58;;;;;;;6.35;1.08;;;11.40;99.90;;;;;;5036126;28;20025;-48
2023/05/29 05:10:24;;;;;;;7.00;1.20;;;11.40;99.90;;;;;;5035923;28;20106;-52
2023/05/29 05:12:50;;;;;;;4.67;1.20;;;11.40;99.90;;;;;;5069474;28;20025;-49
2023/05/29 05:15:19;;;;;;;;;;;11.40;99.90;;;;;;5036541;28;20029;-50
2023/05/29 05:17:46;;;;;;;5.40;1.63;;;11.50;99.90;;;;;;5036117;28;19916;-53
2023/05/29 05:20:13;;;;;;;4.10;1.50;;;11.50;99.90;;;;;;5035890;28;20082;-47
2023/05/29 05:22:39;;;;;;;8.73;1.40;;;11.60;99.90;;;;;;5035971;28;20121;-50
2023/05/29 05:25:05;;;;;;;4.00;1.10;;;11.60;99.90;;;;;;5035791;28;20112;-50
2023/05/29 05:27:31;;;;;;;6.70;1.50;;;11.60;99.90;;;;;;5035786;28;20033;-48
2023/05/29 05:29:57;;;;;;;6.53;0.87;;;11.70;99.90;;;;;;5035936;28;20029;-52
2023/05/29 05:32:23;;;;;;;6.27;1.37;;;11.70;99.90;;;;;;5035734;28;20036;-50
2023/05/29 05:34:56;;;;;;;6.10;1.50;;;11.70;99.90;;;;;;5035628;28;20032;-52
2023/05/29 05:37:23;;;;;;;5.10;1.10;;;11.80;99.90;;;;;;5035706;28;20455;-48
2023/05/29 05:39:53;;;;;;;3.23;1.07;;;11.80;99.90;;;;;;5035760;28;20075;-51
2023/05/29 05:42:19;;;;;;;4.23;1.73;;;11.90;99.90;;;;;;5035471;28;20120;-49
2023/05/29 05:44:58;;;;;;;4.93;1.80;;;11.90;99.90;;;;;;5035458;28;20041;-48
2023/05/29 05:47:24;;;;;;;10.33;1.90;;;11.90;99.90;;;;;;5035591;28;20052;-47
2023/05/29 05:49:51;;;;;;;5.63;1.30;;;12.00;99.90;;;;;;5035366;28;20477;-52
2023/05/29 05:52:17;;;;;;;6.93;1.43;;;12.00;99.90;;;;;;5053026;28;20025;-52
2023/05/29 05:54:43;;;;;;;7.43;1.23;;;12.10;99.90;;;;;;5068423;28;20445;-51
2023/05/29 05:57:11;;;;;;;5.97;1.10;;;12.20;99.90;;;;;;5034766;28;20521;-49
2023/05/29 05:59:37;;;;;;;4.97;1.40;;;12.30;99.90;;;;;;5035199;28;20485;-51
2023/05/29 06:02:04;;;;;;;5.87;1.90;;;12.40;99.90;;;;;;5034666;28;20040;-49
2023/05/29 06:04:30;;;;;;;3.77;1.23;;;12.50;99.90;;;;;;5034947;28;20028;-49
2023/05/29 06:06:57;;;;;;;5.77;1.30;;;12.50;99.90;;;;;;5018850;28;20029;-49
2023/05/29 06:09:24;;;;;;;6.00;1.67;;;12.50;99.90;;;;;;5035161;28;20463;-49
2023/05/29 06:11:50;;;;;;;5.00;1.30;;;12.50;99.90;;;;;;5034514;28;20059;-50
2023/05/29 06:14:16;;;;;;;3.07;1.10;;;12.70;99.90;;;;;;5052309;28;20485;-48
2023/05/29 06:16:43;;;;;;;5.57;1.47;;;12.70;99.90;;;;;;5035025;28;20029;-50
2023/05/29 06:19:10;;;;;;;4.67;1.23;;;12.90;99.90;;;;;;5034896;28;20110;-48
2023/05/29 06:21:49;;;;;;;5.33;1.27;;;13.00;99.90;;;;;;5034789;28;20163;-48
2023/05/29 06:24:15;;;;;;;6.25;1.25;;;13.10;99.90;;;;;;5034777;28;20077;-51
2023/05/29 06:26:41;;;;;;;6.25;1.00;;;13.20;99.90;;;;;;5034523;28;20028;-52
2023/05/29 06:29:08;;;;;;;3.40;1.10;;;13.30;99.90;;;;;;5034339;28;20114;-51
2023/05/29 06:31:34;;;;;;;6.05;1.70;;;13.40;99.90;;;;;;5034086;28;20477;-51
2023/05/29 06:34:00;;;;;;;4.63;1.20;;;13.50;99.90;;;;;;5034341;28;20031;-49
2023/05/29 06:36:26;;;;;;;6.00;1.00;;;13.50;99.90;;;;;;5018106;28;20033;-49
2023/05/29 06:38:52;;;;;;;5.75;1.35;;;13.60;99.90;;;;;;5024122;28;20025;-52
2023/05/29 06:41:18;;;;;;;7.78;1.00;;;13.70;99.90;;;;;;5033861;28;20029;-51
2023/05/29 06:43:44;;;;;;;6.32;1.20;;;13.80;99.90;;;;;;5033910;28;20128;-49
2023/05/29 06:46:10;;;;;;;6.72;1.90;;;14.00;99.90;;;;;;5051508;28;20103;-49
2023/05/29 06:48:36;;;;;;;5.75;1.50;;;14.10;99.90;;;;;;5033682;28;20029;-48
2023/05/29 06:51:09;;;;;;;5.22;1.70;;;14.20;99.90;;;;;;5033682;28;20026;-50
2023/05/29 06:53:41;;;;;;;8.35;1.60;;;14.40;99.90;;;;;;5034943;28;20064;-48
2023/05/29 06:56:09;;;;;;;4.57;1.20;;;14.50;99.90;;;;;;5033423;28;20025;-52
2023/05/29 06:58:35;;;;;;;6.38;1.20;;;14.50;99.90;;;;;;5028895;28;20029;-50
2023/05/29 07:01:01;;;;;;;5.05;1.30;;;14.70;99.90;;;;;;5033877;28;20032;-48
2023/05/29 07:03:31;;;;;;;5.05;1.17;;;14.70;99.90;;;;;;5030923;28;20334;-52
2023/05/29 07:05:56;;;;;;;3.97;1.15;;;14.70;99.90;;;;;;5033661;28;20025;-52
2023/05/29 07:08:23;;;;;;;4.53;1.33;;;14.70;99.90;;;;;;5033934;28;20031;-49
2023/05/29 07:10:50;;;;;;;5.03;1.40;;;14.80;99.90;;;;;;5033934;28;20115;-49
2023/05/29 07:13:17;;;;;;;3.65;1.00;;;14.90;99.90;;;;;;5033639;28;20052;-53
2023/05/29 07:15:44;;;;;;;5.60;1.17;;;14.90;99.90;;;;;;5033520;28;20039;-48
2023/05/29 07:18:11;;;;;;;2.83;1.20;;;15.00;99.90;;;;;;5033841;28;20033;-52
2023/05/29 07:20:38;;;;;;;4.78;1.30;;;15.10;99.90;;;;;;5033889;28;20086;-50
2023/05/29 07:23:04;;;;;;;4.60;1.13;;;15.20;99.90;;;;;;5033867;28;20025;-48
2023/05/29 07:25:32;;;;;;;5.32;1.33;;;15.40;99.90;;;;;;5051772;28;20500;-52
2023/05/29 07:27:58;;;;;;;6.53;1.05;;;15.50;99.90;;;;;;5033921;28;20601;-49
2023/05/29 07:30:24;;;;;;;5.13;1.35;;;15.60;99.70;;;;;;5033588;28;20035;-53
2023/05/29 07:32:51;;;;;;;5.03;1.30;;;15.80;99.60;;;;;;5033621;28;20100;-50
2023/05/29 07:35:17;;;;;;;6.93;1.23;;;15.80;99.90;;;;;;5033653;28;20040;-52
2023/05/29 07:37:42;;;;;;;4.80;1.58;;;15.90;98.90;;;;;;5033481;28;20037;-53
2023/05/29 07:40:12;;;;;;;4.93;1.25;;;16.10;98.70;;;;;;5033444;28;20025;-53
2023/05/29 07:42:56;;;;;;;5.50;1.40;;;16.30;99.30;;;;;;5051662;28;20047;-50
2023/05/29 07:45:22;;;;;;;5.57;1.00;;;16.40;98.00;;;;;;5033158;28;20103;-49
2023/05/29 07:47:48;;;;;;;6.70;1.23;;;16.20;98.70;;;;;;5033396;28;20025;-49
2023/05/29 07:50:15;;;;;;;6.88;1.30;;;16.30;98.80;;;;;;5033346;28;20136;-52
2023/05/29 07:52:43;;;;;;;6.38;1.52;;;16.20;98.70;;;;;;5051224;28;20112;-52
2023/05/29 07:55:10;;;;;;;6.55;1.38;;;16.20;98.60;;;;;;5033290;28;20505;-50
2023/05/29 07:57:39;;;;;;;6.97;1.23;;;16.20;98.50;;;;;;5033326;28;20060;-52
2023/05/29 08:00:07;;;;;;;4.22;1.40;;;16.30;99.10;;;;;;5032914;28;20119;-51
2023/05/29 08:02:34;;;;;;;5.75;1.60;;;16.30;98.70;;;;;;5031887;28;20037;-49
2023/05/29 08:05:20;;;;;;;10.02;1.73;;;16.20;98.30;;;;;;5050649;28;20047;-50
2023/05/29 08:07:46;;;;;;;8.27;1.63;;;16.30;99.10;;;;;;5050909;28;20682;-48
2023/05/29 08:10:12;;;;;;;3.63;1.13;;;16.20;98.30;;;;;;5033115;28;20024;-51
2023/05/29 08:12:38;;;;;;;5.82;1.38;;;16.20;98.70;;;;;;5050484;28;20367;-52
2023/05/29 08:15:04;;;;;;;6.60;1.52;;;16.20;99.00;;;;;;5049078;28;20090;-49
2023/05/29 08:17:30;;;;;;;7.10;1.40;;;16.10;98.30;;;;;;5051149;28;20074;-51
2023/05/29 08:19:56;;;;;;;5.30;1.38;;;16.10;98.90;;;;;;5050940;28;20390;-52
2023/05/29 08:22:28;;;;;;;28.60;13.15;;;16.20;98.70;;;;;;5050711;28;20064;-51
2023/05/29 08:24:54;;;;;;;28.70;13.40;;;16.30;98.80;;;;;;5050704;28;20466;-52
2023/05/29 08:27:20;;;;;;;14.35;5.55;;;16.30;98.60;;;;;;5051007;28;20056;-48
2023/05/29 08:29:46;;;;;;;7.18;1.88;;;16.30;98.70;;;;;;5050851;28;20063;-50
2023/05/29 08:32:11;;;;;;;6.40;1.70;;;16.20;98.70;;;;;;5050708;28;20064;-49
2023/05/29 08:34:37;;;;;;;6.03;1.58;;;16.30;98.80;;;;;;5050650;28;20025;-51
2023/05/29 08:37:03;;;;;;;5.10;1.42;;;16.50;99.40;;;;;;5053891;28;20037;-51
2023/05/29 08:39:29;;;;;;;7.85;1.50;;;16.60;98.90;;;;;;5054639;28;20036;-51
2023/05/29 08:42:24;;;;;;;5.47;1.40;;;16.60;98.40;;;;;;5036290;28;20029;-51
2023/05/29 08:44:55;;;;;;;9.15;1.88;;;16.80;98.60;;;;;;5047464;28;20037;-51
2023/05/29 08:47:26;;;;;;;6.07;1.45;;;16.90;99.00;;;;;;5054678;28;20424;-51
2023/05/29 08:49:55;;;;;;;3.25;1.08;;;16.90;97.90;;;;;;5054627;28;20033;-50
2023/05/29 08:52:25;;;;;;;6.10;1.30;;;17.00;98.20;;;;;;5054272;28;20127;-52
2023/05/29 08:54:52;;;;;;;6.10;1.38;;;17.10;99.50;;;;;;5054151;28;20037;-51
2023/05/29 08:57:18;;;;;;;5.28;1.60;;;17.20;98.40;;;;;;5054602;28;20029;-49
2023/05/29 08:59:49;;;;;;;6.30;1.70;;;17.30;97.90;;;;;;5054360;28;20036;-48
2023/05/29 09:02:15;;;;;;;4.47;1.42;;;17.30;97.80;;;;;;5053172;28;20021;-49
2023/05/29 09:04:54;;;;;;;6.40;1.38;;;17.30;97.90;;;;;;5054104;28;20024;-47
2023/05/29 09:07:20;;;;;;;4.55;1.48;;;17.30;98.90;;;;;;5054271;28;20032;-47
2023/05/29 09:09:46;;;;;;;6.22;1.52;;;17.20;97.80;;;;;;5054335;28;20025;-48
2023/05/29 09:12:12;;;;;;;8.65;1.48;;;17.30;98.60;;;;;;5054284;28;20065;-48
2023/05/29 09:14:44;;;;;;;7.38;1.73;;;17.30;98.20;;;;;;5053970;28;20102;-48
2023/05/29 09:17:11;;;;;;;4.43;1.25;;;17.50;98.80;;;;;;5054049;28;20021;-48
2023/05/29 09:19:40;;;;;;;6.18;1.50;;;17.60;97.60;;;;;;5054098;28;20040;-48
2023/05/29 09:22:16;;;;;;;4.45;0.93;;;17.70;97.20;;;;;;5053943;28;20029;-50
2023/05/29 09:24:47;;;;;;;4.80;1.45;;;17.70;96.80;;;;;;5053909;28;20029;-48
2023/05/29 09:27:13;;;;;;;6.75;1.83;;;17.60;97.00;;;;;;5054177;28;20037;-48
2023/05/29 09:29:42;;;;;;;4.57;1.58;;;17.60;97.90;;;;;;5053882;28;20028;-47
2023/05/29 09:32:10;;;;;;;7.50;1.75;;;17.60;96.30;;;;;;5053540;28;20033;-50
2023/05/29 09:34:36;;;;;;;6.72;1.50;;;17.60;97.60;;;;;;5053621;28;20476;-49
2023/05/29 09:37:12;;;;;;;2.70;1.13;;;17.70;98.10;;;;;;5053916;28;20060;-49
2023/05/29 09:39:51;;;;;;;5.60;1.50;;;17.70;96.70;;;;;;5053876;28;20100;-48
2023/05/29 09:42:17;;;;;;;6.63;1.45;;;17.80;96.30;;;;;;5053605;28;20033;-49
2023/05/29 09:44:46;;;;;;;6.03;1.63;;;18.00;96.50;;;;;;5053402;28;20033;-49
2023/05/29 09:47:18;;;;;;;6.18;1.52;;;17.90;95.90;;;;;;5052574;28;20468;-49
2023/05/29 09:49:48;;;;;;;7.43;1.98;;;17.90;96.60;;;;;;5053595;28;20493;-49
2023/05/29 09:52:15;;;;;;;5.13;1.42;;;17.90;96.30;;;;;;5053473;28;20451;-48
2023/05/29 09:54:48;;;;;;;4.55;1.38;;;17.90;96.30;;;;;;5053627;28;20032;-52
2023/05/29 09:57:16;;;;;;;6.70;1.60;;;18.00;95.90;;;;;;5053414;28;20072;-47
2023/05/29 09:59:45;;;;;;;8.40;1.47;;;18.00;96.70;;;;;;5053553;28;20031;-52
2023/05/29 10:02:13;;;;;;;4.90;1.30;;;18.00;96.20;;;;;;5053420;28;20449;-47
2023/05/29 10:04:40;;;;;;;6.88;1.83;;;17.90;95.70;;;;;;5053302;28;20037;-48
2023/05/29 10:07:16;;;;;;;3.83;1.15;;;17.90;95.90;;;;;;5053262;28;20068;-48
2023/05/29 10:09:45;;;;;;;5.22;1.50;;;18.10;97.70;;;;;;5053434;28;20078;-50
2023/05/29 10:12:17;;;;;;;8.15;1.65;;;18.10;96.10;;;;;;5053282;28;20032;-49
2023/05/29 10:14:45;;;;;;;6.82;1.35;;;18.10;95.50;;;;;;5053214;28;20037;-47
2023/05/29 10:17:13;;;;;;;5.70;1.50;;;18.00;96.10;;;;;;5053213;28;20029;-50
2023/05/29 10:19:39;;;;;;;5.85;1.80;;;18.20;96.40;;;;;;5053125;28;20025;-48
2023/05/29 10:22:06;;;;;;;4.60;1.35;;;18.30;97.40;;;;;;5052773;28;20362;-48
2023/05/29 10:24:34;;;;;;;5.45;1.40;;;18.40;95.50;;;;;;5052875;28;20385;-49
2023/05/29 10:27:01;;;;;;;5.60;1.88;;;18.40;95.40;;;;;;5053067;28;20056;-48
2023/05/29 10:29:45;;;;;;;5.97;1.30;;;18.40;95.70;;;;;;5053216;28;20500;-51
2023/05/29 10:32:27;;;;;;;5.55;1.75;;;18.40;96.00;;;;;;5052554;28;20025;-49
2023/05/29 10:35:39;;;;;;;5.60;1.52;;;18.40;95.10;;;;;;5052577;28;20056;-48
2023/05/29 10:38:24;;;;;;;5.32;1.58;;;18.50;95.40;;;;;;4974489;28;20030;-51
2023/05/29 10:40:50;;;;;;;5.53;1.35;;;18.70;96.00;;;;;;4990429;28;20424;-48
2023/05/29 10:43:33;;;;;;;5.97;1.55;;;18.80;94.50;;;;;;5027682;28;20095;-53
2023/05/29 10:46:02;;;;;;;6.28;1.67;;;18.90;94.50;;;;;;5052475;28;20029;-53
2023/05/29 10:48:38;;;;;;;4.80;1.40;;;18.90;94.10;;;;;;5034439;28;20421;-49
2023/05/29 10:51:06;;;;;;;4.72;1.27;;;19.00;94.40;;;;;;5052442;28;20036;-51
2023/05/29 10:53:32;;;;;;;;;;;19.10;95.00;;;;;;5052023;28;20036;-48
2023/05/29 10:56:01;;;;;;;5.72;1.42;;;19.10;93.80;;;;;;5051550;28;19908;-48
2023/05/29 10:58:27;;;;;;;6.50;1.50;;;19.20;95.00;;;;;;5051481;28;20029;-49
2023/05/29 11:00:56;;;;;;;3.47;1.15;;;19.20;93.70;;;;;;5051409;28;20044;-51
2023/05/29 11:03:29;;;;;;;4.20;1.50;;;19.20;93.60;;;;;;5051570;28;20036;-50
2023/05/29 11:06:10;;;;;;;4.90;1.63;;;19.20;94.20;;;;;;5051098;28;20120;-51
2023/05/29 11:08:54;;;;;;;5.28;1.30;;;19.30;94.20;;;;;;5051470;28;20397;-52
2023/05/29 11:11:35;;;;;;;6.47;1.40;;;19.40;94.40;;;;;;5051065;28;20056;-53
2023/05/29 11:14:04;;;;;;;4.75;1.40;;;19.40;93.10;;;;;;5051122;28;20029;-52
2023/05/29 11:16:30;;;;;;;10.80;1.45;;;19.50;93.20;;;;;;5051223;28;20029;-49
2023/05/29 11:18:57;;;;;;;7.00;1.98;;;19.50;93.30;;;;;;5051377;28;20025;-52
2023/05/29 11:21:49;;;;;;;6.97;1.60;;;19.50;93.20;;;;;;5050902;28;20037;-50
2023/05/29 11:24:26;;;;;;;3.05;1.15;;;19.50;93.20;;;;;;5050952;28;20078;-49
2023/05/29 11:26:53;;;;;;;5.70;1.70;;;19.60;93.10;;;;;;5051353;28;20162;-53
2023/05/29 11:29:27;;;;;;;6.70;1.48;;;19.60;92.90;;;;;;5050993;28;20048;-52
2023/05/29 11:32:02;;;;;;;6.10;1.65;;;19.60;93.40;;;;;;5050723;28;20032;-51
2023/05/29 11:34:30;;;;;;;5.93;1.52;;;19.50;93.00;;;;;;5050832;28;20120;-52
2023/05/29 11:37:00;;;;;;;4.45;1.20;;;19.50;92.40;;;;;;5050940;28;20056;-51
2023/05/29 11:39:26;;;;;;;7.60;1.80;;;19.60;93.00;;;;;;5050864;28;20540;-48
2023/05/29 11:41:53;;;;;;;6.35;1.25;;;19.60;92.90;;;;;;5050547;28;20117;-49
2023/05/29 11:44:19;;;;;;;4.97;1.58;;;19.70;93.20;;;;;;5050676;28;20028;-49
2023/05/29 11:46:45;;;;;;;6.63;1.65;;;19.60;93.30;;;;;;5050632;28;20112;-49
2023/05/29 11:49:10;;;;;;;5.32;1.40;;;19.70;92.30;;;;;;5050709;28;20041;-50
2023/05/29 11:51:36;;;;;;;4.43;1.40;;;19.70;92.50;;;;;;5050462;28;20028;-48
2023/05/29 11:54:02;;;;;;;3.90;1.30;;;19.80;92.70;;;;;;5050503;28;20396;-51
2023/05/29 11:56:28;;;;;;;5.13;1.63;;;19.80;92.70;;;;;;5050857;28;20055;-50
2023/05/29 11:58:57;;;;;;;5.03;1.20;;;20.00;92.80;;;;;;5050925;28;20382;-52
2023/05/29 12:01:27;;;;;;;4.22;1.30;;;20.10;92.70;;;;;;5050600;28;20055;-54
2023/05/29 12:03:53;;;;;;;4.93;1.25;;;20.20;92.50;;;;;;5050514;28;20426;-53
2023/05/29 12:06:37;;;;;;;5.22;1.52;;;20.20;91.90;;;;;;5050343;28;20033;-49
2023/05/29 12:09:04;;;;;;;5.82;1.40;;;20.20;93.10;;;;;;5050524;28;20033;-53
2023/05/29 12:11:30;;;;;;;5.20;1.20;;;20.20;91.70;;;;;;5049756;28;20116;-51
2023/05/29 12:14:02;;;;;;;6.28;1.27;;;20.20;91.80;;;;;;5050367;28;20086;-50
2023/05/29 12:16:30;;;;;;;3.33;1.00;;;20.20;92.00;;;;;;5050562;28;20098;-51
2023/05/29 12:18:56;;;;;;;7.15;2.20;;;20.10;91.90;;;;;;5050528;28;20438;-52
2023/05/29 12:21:23;;;;;;;3.88;1.35;;;20.20;92.20;;;;;;5050221;28;20063;-52
2023/05/29 12:23:52;;;;;;;4.50;1.30;;;20.20;92.50;;;;;;5050123;28;20025;-49
2023/05/29 12:26:20;;;;;;;5.10;1.30;;;20.20;91.50;;;;;;5050417;28;20029;-49
2023/05/29 12:28:46;;;;;;;3.22;1.15;;;20.20;92.00;;;;;;5050437;28;20157;-52
2023/05/29 12:31:11;;;;;;;5.47;1.30;;;20.10;91.40;;;;;;5032255;28;20029;-52
2023/05/29 12:33:42;;;;;;;6.20;1.50;;;20.10;91.50;;;;;;5050280;28;20025;-49
2023/05/29 12:36:10;;;;;;;6.38;1.27;;;20.10;91.70;;;;;;5050314;28;20040;-49
2023/05/29 12:38:50;;;;;;;6.38;1.23;;;20.20;91.70;;;;;;5050388;28;20083;-49
2023/05/29 12:41:26;;;;;;;3.47;1.42;;;20.20;91.50;;;;;;5050669;28;20060;-52
2023/05/29 12:43:56;;;;;;;3.60;1.20;;;20.20;91.30;;;;;;5050660;28;20154;-52
2023/05/29 12:46:23;;;;;;;5.47;1.40;;;20.10;91.60;;;;;;5050557;28;20481;-52
2023/05/29 12:48:49;;;;;;;5.05;1.52;;;20.20;91.50;;;;;;5050920;28;20025;-50
2023/05/29 12:51:17;;;;;;;3.78;1.20;;;20.20;91.70;;;;;;5050438;28;20185;-48
2023/05/29 12:53:43;;;;;;;6.47;1.38;;;20.20;91.60;;;;;;5050347;28;20033;-47